Mazar-i-Sharif, Afghanistan
Current Conditions -  °F | °C
As of 8:50 PM on Sunday 23 Nov 2014 (Local Time) from OAMS Reporting Station
Few Clouds Few Clouds  
Wind Chill: 48°   Ceiling: Unl
Heat Index: 48°   Visibility: 6mi
Dew Point: 32°   Wind: 3mph
Humidity: 54%   Direction: 310°NW
Pressure: 29.88"   Gusts: NA
Location:  36.7°N, 67.12°E
Report Text: OAMS 231650Z 31003KT 9999 FEW260 09/M00 Q1012 BLU+BLU+
Loading
Personal Weather Stations






























Interactive Weather Map New forecast layout! Learn more

10-Day Weather Forecast

Advertisements
Track Severe Weather on mobile